ACA887 CYYZ-LOWW
Flight info
| Callsign | ACA887 |
|---|---|
| Flight time | N/A |
| Altitude | 35000 |
| Route | ART096046 BEEHS JIGZY HULTN N611A SAXAN/M083F330 5250N 5340N 5330N 5320N MALOT/N0480F330 GISTI/N0474F350 EVRIN JETZI AMFUL CAWZE SIRIC P2 DVR UL9 KONAN UL607 KOK MATUG AMASI BOMBI DETEV DINKU BESNI ALUTU AKIMA/N0468F310 MASUR MASUR3W LOWW |
| Aircraft | B77W/H-SDE1E2E3FGHIJ2J3J4J5M1RWXY/LB1D1 |
Departure
| Time | N/A |
|---|---|
| Airport | Toronto Pearson International Airport (CYYZ) |
Arrival
| Time | 2026-04-26 00:05 |
|---|---|
| Airport | Vienna International Airport (LOWW) |
| Time | Latitude | Longitude | Altitude | Speed | Heading |
|---|---|---|---|---|---|
| 2026-04-25 23:16 | 49.81417 | 9.54673 | 37170 ft | 519 kts | 128° |
| 2026-04-25 23:16 | 49.79080 | 9.59010 | 37155 ft | 519 kts | 133° |
| 2026-04-25 23:17 | 49.73899 | 9.66686 | 37152 ft | 518 kts | 138° |
| 2026-04-25 23:17 | 49.68576 | 9.74201 | 37156 ft | 519 kts | 138° |
| 2026-04-25 23:18 | 49.63275 | 9.81765 | 37154 ft | 519 kts | 137° |
| 2026-04-25 23:18 | 49.57994 | 9.89356 | 37157 ft | 518 kts | 137° |
| 2026-04-25 23:19 | 49.52710 | 9.96938 | 37143 ft | 519 kts | 137° |
| 2026-04-25 23:19 | 49.47545 | 10.04321 | 37160 ft | 520 kts | 137° |
| 2026-04-25 23:20 | 49.42242 | 10.11880 | 37160 ft | 520 kts | 137° |
| 2026-04-25 23:20 | 49.36918 | 10.19446 | 37159 ft | 521 kts | 138° |
| 2026-04-25 23:21 | 49.31584 | 10.27003 | 37165 ft | 522 kts | 138° |
| 2026-04-25 23:21 | 49.26729 | 10.35232 | 37158 ft | 520 kts | 124° |
| 2026-04-25 23:22 | 49.23737 | 10.43176 | 37160 ft | 518 kts | 112° |
| 2026-04-25 23:23 | 49.19195 | 10.60147 | 37187 ft | 519 kts | 111° |
| 2026-04-25 23:23 | 49.16904 | 10.68714 | 37191 ft | 519 kts | 111° |
| 2026-04-25 23:24 | 49.14147 | 10.78856 | 37183 ft | 520 kts | 111° |
| 2026-04-25 23:24 | 49.11352 | 10.89026 | 37172 ft | 519 kts | 111° |
| 2026-04-25 23:25 | 49.08541 | 10.99193 | 37173 ft | 519 kts | 111° |
| 2026-04-25 23:25 | 49.05778 | 11.09159 | 37175 ft | 519 kts | 111° |
| 2026-04-25 23:26 | 49.02958 | 11.19298 | 37147 ft | 520 kts | 111° |
| 2026-04-25 23:26 | 49.00122 | 11.29450 | 37149 ft | 520 kts | 111° |
| 2026-04-25 23:27 | 48.97492 | 11.39605 | 37134 ft | 517 kts | 105° |
| 2026-04-25 23:27 | 48.96017 | 11.50289 | 37156 ft | 514 kts | 95° |
| 2026-04-25 23:28 | 48.95048 | 11.61069 | 37134 ft | 514 kts | 95° |
| 2026-04-25 23:28 | 48.94056 | 11.71860 | 37131 ft | 514 kts | 96° |
| 2026-04-25 23:29 | 48.93034 | 11.82531 | 36985 ft | 510 kts | 96° |
| 2026-04-25 23:29 | 48.92512 | 11.87868 | 36601 ft | 511 kts | 96° |
| 2026-04-25 23:29 | 48.91985 | 11.93217 | 36175 ft | 512 kts | 96° |
| 2026-04-25 23:29 | 48.91457 | 11.98585 | 35695 ft | 515 kts | 96° |
| 2026-04-25 23:30 | 48.90944 | 12.03794 | 35241 ft | 516 kts | 96° |
| 2026-04-25 23:30 | 48.90409 | 12.09196 | 34792 ft | 517 kts | 96° |
| 2026-04-25 23:30 | 48.89870 | 12.14608 | 34339 ft | 518 kts | 96° |
| 2026-04-25 23:30 | 48.89329 | 12.20013 | 33863 ft | 517 kts | 96° |
| 2026-04-25 23:31 | 48.88782 | 12.25438 | 33345 ft | 518 kts | 96° |
| 2026-04-25 23:31 | 48.88241 | 12.30785 | 33129 ft | 519 kts | 96° |
| 2026-04-25 23:31 | 48.87687 | 12.36225 | 33133 ft | 520 kts | 96° |
| 2026-04-25 23:32 | 48.86575 | 12.47071 | 33117 ft | 520 kts | 96° |
| 2026-04-25 23:32 | 48.85453 | 12.57933 | 33110 ft | 519 kts | 96° |
| 2026-04-25 23:33 | 48.84322 | 12.68759 | 33104 ft | 519 kts | 96° |
| 2026-04-25 23:33 | 48.83178 | 12.79589 | 33109 ft | 520 kts | 96° |
| 2026-04-25 23:34 | 48.82033 | 12.90347 | 33104 ft | 520 kts | 96° |
| 2026-04-25 23:34 | 48.80891 | 13.00980 | 33110 ft | 520 kts | 96° |
| 2026-04-25 23:35 | 48.79719 | 13.11799 | 33105 ft | 519 kts | 97° |
| 2026-04-25 23:35 | 48.78536 | 13.22625 | 33112 ft | 520 kts | 96° |
| 2026-04-25 23:36 | 48.77343 | 13.33432 | 33111 ft | 520 kts | 97° |
| 2026-04-25 23:36 | 48.76145 | 13.44195 | 33099 ft | 521 kts | 97° |
| 2026-04-25 23:37 | 48.74929 | 13.55018 | 33102 ft | 520 kts | 97° |
| 2026-04-25 23:37 | 48.73704 | 13.65835 | 33110 ft | 520 kts | 97° |
| 2026-04-25 23:38 | 48.72468 | 13.76655 | 33094 ft | 520 kts | 97° |
| 2026-04-25 23:38 | 48.71855 | 13.81986 | 33081 ft | 505 kts | 97° |
| 2026-04-25 23:38 | 48.71258 | 13.87135 | 33075 ft | 488 kts | 97° |
| 2026-04-25 23:38 | 48.70681 | 13.92056 | 32790 ft | 477 kts | 97° |
| 2026-04-25 23:39 | 48.70105 | 13.96988 | 32281 ft | 473 kts | 97° |
| 2026-04-25 23:39 | 48.69558 | 14.01680 | 31833 ft | 468 kts | 97° |
| 2026-04-25 23:39 | 48.68996 | 14.06505 | 31371 ft | 463 kts | 97° |
| 2026-04-25 23:39 | 48.68437 | 14.11280 | 30896 ft | 459 kts | 97° |
| 2026-04-25 23:40 | 48.67879 | 14.16017 | 30450 ft | 455 kts | 97° |
| 2026-04-25 23:40 | 48.67322 | 14.20726 | 29946 ft | 452 kts | 97° |
| 2026-04-25 23:40 | 48.66775 | 14.25319 | 29420 ft | 447 kts | 97° |
| 2026-04-25 23:40 | 48.66223 | 14.29931 | 28945 ft | 442 kts | 97° |
| 2026-04-25 23:41 | 48.65676 | 14.34481 | 28487 ft | 437 kts | 97° |
| 2026-04-25 23:41 | 48.65135 | 14.38979 | 28021 ft | 433 kts | 97° |
| 2026-04-25 23:41 | 48.64595 | 14.43453 | 27565 ft | 429 kts | 97° |
| 2026-04-25 23:41 | 48.64061 | 14.47867 | 27126 ft | 425 kts | 97° |
| 2026-04-25 23:42 | 48.63527 | 14.52249 | 26669 ft | 422 kts | 97° |
| 2026-04-25 23:42 | 48.62998 | 14.56590 | 26217 ft | 419 kts | 97° |
| 2026-04-25 23:42 | 48.62470 | 14.60915 | 25771 ft | 416 kts | 97° |
| 2026-04-25 23:42 | 48.61950 | 14.65152 | 25351 ft | 413 kts | 97° |
| 2026-04-25 23:43 | 48.61426 | 14.69409 | 24918 ft | 411 kts | 97° |
| 2026-04-25 23:43 | 48.60902 | 14.73651 | 24480 ft | 409 kts | 97° |
| 2026-04-25 23:43 | 48.60381 | 14.77866 | 24058 ft | 407 kts | 97° |
| 2026-04-25 23:43 | 48.59857 | 14.82083 | 23627 ft | 405 kts | 97° |
| 2026-04-25 23:44 | 48.59343 | 14.86209 | 23129 ft | 403 kts | 98° |
| 2026-04-25 23:44 | 48.58825 | 14.90358 | 22678 ft | 401 kts | 98° |
| 2026-04-25 23:44 | 48.58306 | 14.94493 | 22233 ft | 398 kts | 98° |
| 2026-04-25 23:44 | 48.57790 | 14.98588 | 21805 ft | 395 kts | 98° |
| 2026-04-25 23:45 | 48.57299 | 15.02468 | 21410 ft | 392 kts | 98° |
| 2026-04-25 23:45 | 48.56791 | 15.06493 | 20980 ft | 389 kts | 98° |
| 2026-04-25 23:45 | 48.56285 | 15.10488 | 20573 ft | 386 kts | 98° |
| 2026-04-25 23:45 | 48.55781 | 15.14454 | 20165 ft | 384 kts | 98° |
| 2026-04-25 23:46 | 48.55279 | 15.18400 | 19756 ft | 382 kts | 98° |
| 2026-04-25 23:46 | 48.54782 | 15.22272 | 19350 ft | 380 kts | 99° |
| 2026-04-25 23:46 | 48.54134 | 15.26173 | 18888 ft | 384 kts | 103° |
| 2026-04-25 23:46 | 48.53384 | 15.30076 | 18478 ft | 391 kts | 104° |
| 2026-04-25 23:47 | 48.52595 | 15.34039 | 18036 ft | 397 kts | 104° |
| 2026-04-25 23:47 | 48.51796 | 15.38051 | 17573 ft | 398 kts | 104° |
| 2026-04-25 23:47 | 48.51007 | 15.42041 | 17064 ft | 396 kts | 104° |
| 2026-04-25 23:47 | 48.50238 | 15.45964 | 16615 ft | 393 kts | 104° |
| 2026-04-25 23:48 | 48.49469 | 15.49909 | 16160 ft | 390 kts | 104° |
| 2026-04-25 23:48 | 48.48708 | 15.53832 | 15707 ft | 387 kts | 104° |
| 2026-04-25 23:48 | 48.47955 | 15.57720 | 15249 ft | 385 kts | 105° |
| 2026-04-25 23:48 | 48.47206 | 15.61583 | 14810 ft | 383 kts | 105° |
| 2026-04-25 23:49 | 48.46459 | 15.65429 | 14396 ft | 380 kts | 105° |
| 2026-04-25 23:49 | 48.45722 | 15.69234 | 14022 ft | 376 kts | 105° |
| 2026-04-25 23:49 | 48.44988 | 15.73001 | 13658 ft | 377 kts | 105° |
| 2026-04-25 23:49 | 48.44233 | 15.76858 | 13281 ft | 390 kts | 105° |
| 2026-04-25 23:50 | 48.43459 | 15.80814 | 13074 ft | 395 kts | 105° |
| 2026-04-25 23:50 | 48.42681 | 15.84786 | 13031 ft | 402 kts | 105° |
| 2026-04-25 23:50 | 48.41872 | 15.88930 | 13026 ft | 418 kts | 105° |
| 2026-04-25 23:50 | 48.41049 | 15.93112 | 13023 ft | 423 kts | 105° |
| 2026-04-25 23:51 | 48.40214 | 15.97341 | 13008 ft | 420 kts | 105° |
| 2026-04-25 23:51 | 48.39416 | 16.01370 | 13008 ft | 418 kts | 105° |
| 2026-04-25 23:51 | 48.38586 | 16.05557 | 13008 ft | 415 kts | 105° |
| 2026-04-25 23:51 | 48.37790 | 16.09556 | 12957 ft | 379 kts | 105° |
| 2026-04-25 23:52 | 48.37052 | 16.13248 | 12661 ft | 365 kts | 105° |
| 2026-04-25 23:52 | 48.36332 | 16.16853 | 12204 ft | 363 kts | 105° |
| 2026-04-25 23:52 | 48.35605 | 16.20493 | 11744 ft | 362 kts | 106° |
| 2026-04-25 23:52 | 48.34885 | 16.24109 | 11303 ft | 361 kts | 106° |
| 2026-04-25 23:53 | 48.34163 | 16.27733 | 10878 ft | 361 kts | 106° |
| 2026-04-25 23:53 | 48.33442 | 16.31338 | 10430 ft | 361 kts | 106° |
| 2026-04-25 23:53 | 48.32721 | 16.34937 | 10056 ft | 360 kts | 106° |
| 2026-04-25 23:53 | 48.31995 | 16.38557 | 9684 ft | 363 kts | 106° |
| 2026-04-25 23:54 | 48.31259 | 16.42201 | 9277 ft | 364 kts | 107° |
| 2026-04-25 23:54 | 48.30523 | 16.45828 | 8894 ft | 363 kts | 107° |
| 2026-04-25 23:54 | 48.29669 | 16.49344 | 8486 ft | 357 kts | 119° |
| 2026-04-25 23:54 | 48.28120 | 16.52201 | 8106 ft | 351 kts | 143° |
| 2026-04-25 23:55 | 48.26179 | 16.54352 | 7748 ft | 346 kts | 147° |
| 2026-04-25 23:55 | 48.24212 | 16.56492 | 7382 ft | 350 kts | 146° |
| 2026-04-25 23:55 | 48.22278 | 16.58641 | 7014 ft | 351 kts | 146° |
| 2026-04-25 23:55 | 48.20311 | 16.60850 | 6662 ft | 354 kts | 145° |
| 2026-04-25 23:56 | 48.18441 | 16.63209 | 6269 ft | 348 kts | 133° |
| 2026-04-25 23:56 | 48.17229 | 16.66260 | 6021 ft | 334 kts | 114° |
| 2026-04-25 23:56 | 48.16269 | 16.69346 | 6002 ft | 320 kts | 116° |
| 2026-04-25 23:56 | 48.15315 | 16.72269 | 5972 ft | 305 kts | 116° |
| 2026-04-25 23:57 | 48.14399 | 16.75050 | 5977 ft | 290 kts | 116° |
| 2026-04-25 23:57 | 48.13529 | 16.77690 | 5976 ft | 275 kts | 116° |
| 2026-04-25 23:57 | 48.12688 | 16.80228 | 5909 ft | 275 kts | 116° |
| 2026-04-25 23:57 | 48.11821 | 16.82830 | 5530 ft | 282 kts | 116° |
| 2026-04-25 23:58 | 48.10889 | 16.85418 | 5068 ft | 279 kts | 127° |
| 2026-04-25 23:58 | 48.09464 | 16.87261 | 4590 ft | 269 kts | 159° |
| 2026-04-25 23:58 | 48.07712 | 16.87831 | 4099 ft | 249 kts | 191° |
| 2026-04-25 23:58 | 48.06097 | 16.87286 | 3683 ft | 230 kts | 205° |
| 2026-04-25 23:59 | 48.04629 | 16.86532 | 3395 ft | 214 kts | 218° |
| 2026-04-25 23:59 | 48.03648 | 16.85089 | 3256 ft | 191 kts | 256° |
| 2026-04-25 23:59 | 48.03281 | 16.83204 | 3179 ft | 190 kts | 269° |
| 2026-04-25 23:59 | 48.03411 | 16.81360 | 3103 ft | 173 kts | 295° |
| 2026-04-26 00:00 | 48.03807 | 16.79722 | 3069 ft | 164 kts | 295° |
| 2026-04-26 00:00 | 48.04230 | 16.78167 | 3005 ft | 160 kts | 297° |
| 2026-04-26 00:00 | 48.04691 | 16.76665 | 3005 ft | 159 kts | 299° |
| 2026-04-26 00:00 | 48.05173 | 16.75162 | 3002 ft | 159 kts | 299° |
| 2026-04-26 00:01 | 48.05632 | 16.73738 | 2941 ft | 148 kts | 300° |
| 2026-04-26 00:01 | 48.06067 | 16.72407 | 2748 ft | 136 kts | 300° |
| 2026-04-26 00:01 | 48.06462 | 16.71197 | 2574 ft | 123 kts | 301° |
| 2026-04-26 00:01 | 48.06834 | 16.70060 | 2426 ft | 122 kts | 300° |
| 2026-04-26 00:02 | 48.07202 | 16.68931 | 2272 ft | 123 kts | 300° |
| 2026-04-26 00:02 | 48.07581 | 16.67766 | 2114 ft | 127 kts | 301° |
| 2026-04-26 00:02 | 48.07969 | 16.66572 | 1936 ft | 127 kts | 301° |
| 2026-04-26 00:02 | 48.08354 | 16.65390 | 1756 ft | 125 kts | 301° |
| 2026-04-26 00:03 | 48.08739 | 16.64210 | 1581 ft | 126 kts | 298° |
| 2026-04-26 00:03 | 48.09123 | 16.63028 | 1434 ft | 127 kts | 299° |
| 2026-04-26 00:03 | 48.09499 | 16.61838 | 1316 ft | 130 kts | 299° |
| 2026-04-26 00:03 | 48.09910 | 16.60579 | 1112 ft | 138 kts | 297° |
| 2026-04-26 00:04 | 48.10336 | 16.59293 | 905 ft | 136 kts | 297° |
| 2026-04-26 00:04 | 48.10755 | 16.58022 | 722 ft | 136 kts | 297° |
| 2026-04-26 00:04 | 48.11168 | 16.56768 | 623 ft | 126 kts | 293° |
| 2026-04-26 00:04 | 48.11496 | 16.55749 | 616 ft | 87 kts | 296° |
| 2026-04-26 00:05 | 48.11704 | 16.55109 | 626 ft | 63 kts | 296° |
| 2026-04-26 00:05 | 48.11840 | 16.54751 | 625 ft | 32 kts | 309° |
| 2026-04-26 00:05 | 48.11985 | 16.54567 | 628 ft | 11 kts | 332° |
| 2026-04-26 00:05 | 48.12042 | 16.54556 | 624 ft | 0 kts | 8° |
| 2026-04-26 00:06 | 48.12046 | 16.54557 | 614 ft | 0 kts | 11° |
| 2026-04-26 00:06 | 48.12053 | 16.54562 | 626 ft | 8 kts | 26° |
| 2026-04-26 00:06 | 48.12043 | 16.54710 | 624 ft | 24 kts | 117° |
| 2026-04-26 00:06 | 48.12002 | 16.54840 | 624 ft | 10 kts | 115° |
| 2026-04-26 00:07 | 48.11973 | 16.54929 | 624 ft | 9 kts | 116° |
| 2026-04-26 00:07 | 48.11946 | 16.55013 | 628 ft | 9 kts | 116° |
| 2026-04-26 00:07 | 48.11927 | 16.55073 | 625 ft | 10 kts | 116° |
| 2026-04-26 00:07 | 48.11895 | 16.55170 | 628 ft | 11 kts | 116° |
| 2026-04-26 00:08 | 48.11850 | 16.55309 | 626 ft | 12 kts | 116° |
| 2026-04-26 00:08 | 48.11825 | 16.55384 | 628 ft | 11 kts | 116° |
| 2026-04-26 00:08 | 48.11791 | 16.55489 | 622 ft | 11 kts | 116° |
| 2026-04-26 00:08 | 48.11761 | 16.55581 | 614 ft | 8 kts | 116° |
| 2026-04-26 00:09 | 48.11736 | 16.55656 | 626 ft | 8 kts | 116° |
| 2026-04-26 00:09 | 48.11712 | 16.55731 | 626 ft | 7 kts | 116° |
| 2026-04-26 00:09 | 48.11704 | 16.55756 | 614 ft | 0 kts | 116° |
| 2026-04-26 00:10 | 48.11696 | 16.55781 | 624 ft | 9 kts | 116° |
| 2026-04-26 00:10 | 48.11662 | 16.55885 | 614 ft | 0 kts | 114° |
| 2026-04-26 00:10 | 48.11663 | 16.55940 | 614 ft | 6 kts | 72° |
| 2026-04-26 00:11 | 48.11673 | 16.55966 | 614 ft | 0 kts | 52° |
| 2026-04-26 00:11 | 48.11686 | 16.55992 | 614 ft | 13 kts | 59° |
| 2026-04-26 00:11 | 48.11661 | 16.56172 | 626 ft | 17 kts | 109° |
| 2026-04-26 00:11 | 48.11658 | 16.56199 | 614 ft | 0 kts | 90° |
| 2026-04-26 00:12 | 48.11695 | 16.56263 | 618 ft | 13 kts | 35° |
| 2026-04-26 00:12 | 48.11749 | 16.56356 | 614 ft | 11 kts | 83° |
| 2026-04-26 00:12 | 48.11727 | 16.56462 | 622 ft | 11 kts | 115° |
| 2026-04-26 00:12 | 48.11691 | 16.56573 | 614 ft | 13 kts | 116° |
| 2026-04-26 00:13 | 48.11675 | 16.56620 | 614 ft | 1 kts | 115° |
| 2026-04-26 00:13 | 48.11651 | 16.56698 | 614 ft | 7 kts | 115° |
| 2026-04-26 00:13 | 48.11646 | 16.56746 | 627 ft | 3 kts | 68° |
| 2026-04-26 00:13 | 48.11662 | 16.56778 | 628 ft | 5 kts | 45° |
| 2026-04-26 00:14 | 48.11683 | 16.56796 | 628 ft | 5 kts | 28° |
| 2026-04-26 00:14 | 48.11705 | 16.56813 | 626 ft | 2 kts | 26° |
| 2026-04-26 00:14 | 48.11708 | 16.56815 | 614 ft | 0 kts | 26° |